• Join FlightAware (Why Join?)
  • Login
  • US Flag 
08:30PM EDT


 

Airport Tracker/Info


-or-


 

Live Flight TrackerFlight Track Log ✈ ASQ6041 ✈ 13-Jul-2013 ✈ KDEN - KGUC

Flight Track Log - Related Links

Times and Time Zones

All times are in EDT time to prevent confusion due to time zone crossing. See the ASQ6041 flight status page for this flight to view local times or setup timezone preferences in your user account.

Time Position Orientation Groundspeed Altitude Reporting Facility
EDT Latitude Longitude Course Direction KTS MPH feet Rate Location/Type
01:11PM 39.8414 -104.7467 251° West 170 196 6,700  Level Denver Center
01:12PM 39.8231 -104.8225 253° West 224 258 7,800 1,560 Climbing Denver Center
01:13PM 39.7942 -104.9256 250° West 276 318 10,000 2,040 Climbing Denver Center
01:14PM 39.7548 -104.9840 249° West  Level FlightAware Approximate
01:14PM 39.7778 -105.0272 258° West 291 335 12,100  Level Denver Center
01:15PM 39.7206 -105.0883 247° West  Level FlightAware Approximate
01:15PM 39.7794 -105.1533 271° West 324 373 13,500  Level Denver Center
01:16PM 39.6859 -105.1924 247° West  Level FlightAware Approximate
01:17PM 39.6436 -105.2908 251° West  Level FlightAware Approximate
01:17PM 39.7803 -105.2792 271° West 344 396 14,900  Level Denver Center
01:18PM 39.7833 -105.4197 272° West 360 414 16,300 1,440 Climbing Denver Center
01:19PM 39.7139 -105.5064 224° Southwest 356 410 17,900 1,680 Climbing Denver Center
01:20PM 39.6214 -105.5703 208° Southwest 350 403 19,900 1,800 Climbing Denver Center
01:21PM 39.5472 -105.6439 217° Southwest 346 398 21,700 960 Climbing Denver Center
01:22PM 39.5092 -105.7719 249° West 360 414 22,000 120 Climbing Denver Center
01:23PM 39.4781 -105.8922 252° West 377 434 22,000  Level Denver Center
01:24PM 39.4389 -106.0331 250° West 412 474 22,000  Level Denver Center
01:25PM 39.3808 -106.1889 244° Southwest 424 488 22,000  Level Denver Center
01:26PM 39.2919 -106.2786 218° Southwest 427 491 22,000  Level Denver Center
01:27PM 39.1856 -106.3761 215° Southwest 421 484 22,000  Level Denver Center
01:28PM 39.0956 -106.4589 216° Southwest 415 478 22,000  Level Denver Center
01:29PM 38.9892 -106.5556 215° Southwest 417 480 22,000  Level Denver Center
01:30PM 38.9186 -106.6603 229° Southwest 416 479 22,000 -300 Level Denver Center
01:31PM 38.8583 -106.8011 241° Southwest 417 480 21,400 -1,620 Descending Denver Center
01:32PM 38.8047 -106.9292 242° Southwest 411 473 18,700 -1,980 Descending Denver Center
01:33PM 38.7603 -107.0383 242° Southwest 358 412 17,400 -1,260 Descending Denver Center
01:34PM 38.7250 -107.1294 244° Southwest 295 339 16,200 -780 Descending Denver Center
01:35PM 38.6908 -107.2108 242° Southwest 265 305 15,800 -480 Descending Denver Center
01:36PM 38.6553 -107.2961 242° Southwest 250 288 15,200 -480 Descending Denver Center
01:37PM 38.6244 -107.3706 242° Southwest 248 285 14,800 -480 Descending Denver Center
01:38PM 38.5647 -107.4139 210° Southwest 244 281 14,300 -780 Descending Denver Center
01:39PM 38.5036 -107.3850 160° South 256 295 13,200 -780 Descending Denver Center
01:40PM 38.4650 -107.2869 117° Southeast 259 298 12,800 -420 Descending Denver Center